Terminal Aerodrome Forecast
Issued by NWS

Home | Current Version | Previous Version | Text Only | Print | Product List | Glossary On
Versions: 1 2 3 4 5 6 7 8 9 10 11 12 13 14 15 16 17 18 19 20 21 22
000
FTUS45 KREV 041736
TAFCXP
TAF
KCXP 041736Z 0418/0518 12005KT P6SM FEW090 SCT140
     FM042100 23008KT P6SM VCTS SCT080CB BKN140
     FM050100 26010KT P6SM VCSH BKN070 BKN120
     FM050400 30008KT P6SM SCT070 BKN120
     FM050700 VRB04KT P6SM SCT120 BKN200=

USA.gov is the U.S. government's official web portal to all federal, state and local government web resources and services.